This is the latest recevied weather packets stored in our database for station/object WB3IGR. If no packets are shown the sender has not sent any weather packets the latest 10 day(s).
| Time | Temp. | Humidity | Pressure | Rain* | Wind** | Luminosity | Snow |
|---|---|---|---|---|---|---|---|
| 1777670932 | 16.11° C | 50% | 1012.1 hPa | 0 mm | - | 121 W/m² | - |
| 1777670629 | 16.67° C | 48% | 1012.1 hPa | 0 mm | - | 101 W/m² | - |
| 1777670326 | 17.22° C | 47% | 1012 hPa | 0 mm | - | 164 W/m² | - |
| 1777670023 | 17.22° C | 46% | 1011.9 hPa | 0 mm | - | 186 W/m² | - |
| 1777669720 | 16.67° C | 49% | 1011.8 hPa | 0 mm | - | 361 W/m² | - |
| 1777669418 | 17.22° C | 46% | 1011.9 hPa | 0 mm | - | 186 W/m² | - |
| 1777669113 | 17.78° C | 46% | 1012 hPa | 0 mm | - | 455 W/m² | - |
| 1777668811 | 18.33° C | 47% | 1011.9 hPa | 0 mm | - | 489 W/m² | - |
| 1777668507 | 17.78° C | 45% | 1012.3 hPa | 0 mm | - | 521 W/m² | - |
| 1777668204 | 17.78° C | 46% | 1012.2 hPa | 0 mm | - | 513 W/m² | - |
| 1777667900 | 17.78° C | 44% | 1012.1 hPa | 0 mm | - | 518 W/m² | - |
| 1777667598 | 17.78° C | 46% | 1011.9 hPa | 0 mm | - | 196 W/m² | - |
| 1777667295 | 17.78° C | 47% | 1012.4 hPa | 0 mm | - | 581 W/m² | - |
| 1777666991 | 16.11° C | 48% | 1012.3 hPa | 0 mm | - | 570 W/m² | - |
| 1777666689 | 16.67° C | 48% | 1012.4 hPa | 0 mm | - | 268 W/m² | - |
| 1777666385 | 17.78° C | 46% | 1012.6 hPa | 0 mm | - | 413 W/m² | - |
| 1777666081 | 16.67° C | 50% | 1012.4 hPa | 0 mm | - | 636 W/m² | - |
| 1777665779 | 15.56° C | 51% | 1012.6 hPa | 0 mm | - | 154 W/m² | - |
| 1777665476 | 16.67° C | 49% | 1012.6 hPa | 0 mm | - | 419 W/m² | - |
| 1777665172 | 17.22° C | 47% | 1012.6 hPa | 0 mm | - | 593 W/m² | - |
| 1777664868 | 16.11° C | 49% | 1012.7 hPa | 0 mm | - | 632 W/m² | - |
| 1777664564 | 17.22° C | 48% | 1012.9 hPa | 0 mm | - | 277 W/m² | - |
| 1777664261 | 17.78° C | 48% | 1013 hPa | 0 mm | - | 617 W/m² | - |
| 1777663959 | 17.78° C | 48% | 1012.8 hPa | 0 mm | - | 621 W/m² | - |
| 1777663657 | 17.22° C | 47% | 1012.9 hPa | 0 mm | - | 627 W/m² | - |
* Rain latest hour (hover to see other rain measurements)
** Current wind speed in m/s (hover to see current wind gust speed)